KGED

Delaware Coastal Airport

Georgetown, Delaware, USA
METAR KGED 211554Z AUTO 31013G25KT 10SM CLR M07/M22 A3023 RMK AO2 PK WND 30033/1524 SNB19E24 SLP237 P0000 T10671217
Observed Flight Rules
Jan-21 @ 15:54 UTC (26 minutes ago) Visual Flight Rules
Wind Visibility Clouds
310° at 13 knots
 Gusting to 25 knots
10 miles
  • Clear skies
Temperatures Readings Precipitation
Current -7°C / 19°F
Dewpoint -22°C / -8°F
Humidity 29%
Altimeter 30.23" Hg
Pressure 1023.7 hPa
Elevation 19
Current Rain 0.01
METAR KGED 211554Z AUTO 31013G25KT 10SM CLR M07/M22 A3023 RMK AO2 PK WND 30033/1524 SNB19E24 SLP237 P0000 T10671217
Observed Flight Rules
Jan-21 @ 15:54 UTC
(26 minutes ago)
VFR
Wind Visibility
310° at 13 knots
 Gusting to 25 knots
10 miles
Clouds
  • Clear skies
Temperature Dewpoint
-7°C / 19°F -22°C / -8°F
Humidity Altimeter Pressure
29% 30.23" Hg 1023.7 hPa
Current Rain
0.01